Time;durP1;ratioP1;P1;durP2;ratioP2;P2;SDS_P1;SDS_P2;PMS_P1;PMS_P2;Temp;Humidity;BMP_temperature;BMP_pressure;BME280_temperature;BME280_humidity;BME280_pressure;Samples;Min_cycle;Max_cycle;Signal;HPM_P1;HPM_P2
2023/06/23 00:04:32;;;;;;;13.2;9.6;;;;;;;19.57;80.32;;;;;
2023/06/23 00:14:32;;;;;;;13.2;9.6;;;;;;;19.62;80.4;;;;;
2023/06/23 00:25:32;;;;;;;12.5;9.2;;;;;;;19.56;80.71;;;;;
2023/06/23 00:36:32;;;;;;;12.5;9.2;;;;;;;19.57;80.84;;;;;
2023/06/23 00:47:32;;;;;;;12.7;8.9;;;;;;;19.55;81.09;;;;;
2023/06/23 00:57:32;;;;;;;12.7;8.9;;;;;;;19.45;80.92;;;;;
2023/06/23 01:07:32;;;;;;;12.7;8.9;;;;;;;19.29;82.51;;;;;
2023/06/23 01:17:32;;;;;;;12.6;10.4;;;;;;;19.21;81.87;;;;;
2023/06/23 01:28:32;;;;;;;12.6;10.4;;;;;;;19.1;82.73;;;;;
2023/06/23 01:39:32;;;;;;;12.6;10.4;;;;;;;18.98;83.24;;;;;
2023/06/23 01:49:36;;;;;;;11.3;9;;;;;;;18.88;84.03;;;;;
2023/06/23 02:00:32;;;;;;;11.3;9;;;;;;;18.66;84.6;;;;;
2023/06/23 02:11:32;;;;;;;11.3;9;;;;;;;18.61;83.84;;;;;
2023/06/23 02:21:32;;;;;;;13.1;9.7;;;;;;;18.58;83.89;;;;;
2023/06/23 02:32:32;;;;;;;13.1;9.7;;;;;;;18.54;84.06;;;;;
2023/06/23 02:42:32;;;;;;;13.1;9.7;;;;;;;18.47;84.29;;;;;
2023/06/23 02:53:32;;;;;;;13.5;9.7;;;;;;;18.49;83.89;;;;;
2023/06/23 03:03:33;;;;;;;13.5;9.7;;;;;;;18.54;84.64;;;;;
2023/06/23 03:13:32;;;;;;;13.5;9.7;;;;;;;18.64;86.24;;;;;
2023/06/23 03:23:32;;;;;;;13.6;10.9;;;;;;;19.03;85.42;;;;;
2023/06/23 03:33:32;;;;;;;13.6;10.9;;;;;;;19.42;84.34;;;;;
2023/06/23 03:43:32;;;;;;;13.6;10.9;;;;;;;19.87;82.96;;;;;
2023/06/23 03:54:32;;;;;;;15.2;11.4;;;;;;;20.28;82.02;;;;;
2023/06/23 04:05:32;;;;;;;15.2;11.4;;;;;;;20.63;81.37;;;;;
2023/06/23 04:15:32;;;;;;;15.5;11.1;;;;;;;21;80.98;;;;;
2023/06/23 04:25:32;;;;;;;15.5;11.1;;;;;;;21.29;80.15;;;;;
2023/06/23 04:36:32;;;;;;;15.5;11.1;;;;;;;21.97;78.66;;;;;
2023/06/23 04:46:32;;;;;;;14.3;10.8;;;;;;;22.47;77.52;;;;;
2023/06/23 04:56:33;;;;;;;14.3;10.8;;;;;;;22.76;77.31;;;;;
2023/06/23 05:06:32;;;;;;;14.3;10.8;;;;;;;23.17;76.48;;;;;
2023/06/23 05:16:32;;;;;;;14.3;10.8;;;;;;;23.73;74.91;;;;;
2023/06/23 05:27:32;;;;;;;14.3;10.8;;;;;;;24.11;73.12;;;;;
2023/06/23 05:37:32;;;;;;;14.3;10.8;;;;;;;24.59;72.45;;;;;
2023/06/23 05:47:32;;;;;;;15.6;11.5;;;;;;;24.82;72.91;;;;;
2023/06/23 05:58:32;;;;;;;15.6;11.5;;;;;;;25.72;71.27;;;;;
2023/06/23 06:08:32;;;;;;;15.6;11.5;;;;;;;26.26;69.84;;;;;
2023/06/23 06:19:32;;;;;;;14.2;12;;;;;;;26.2;71.6;;;;;
2023/06/23 06:30:32;;;;;;;14.2;12;;;;;;;24.3;70.92;;;;;
2023/06/23 06:40:32;;;;;;;14.2;12;;;;;;;23.24;70.24;;;;;
2023/06/23 06:51:32;;;;;;;16.4;9.3;;;;;;;22.71;72.23;;;;;
2023/06/23 07:01:32;;;;;;;16.4;9.3;;;;;;;22.4;72.67;;;;;
2023/06/23 07:12:32;;;;;;;16.4;9.3;;;;;;;21.97;75.57;;;;;
2023/06/23 07:22:33;;;;;;;12.6;5.7;;;;;;;22.07;75.39;;;;;
2023/06/23 07:33:32;;;;;;;12.6;5.7;;;;;;;21.89;77.7;;;;;
2023/06/23 07:44:32;;;;;;;12.6;5.7;;;;;;;21.66;79.89;;;;;
2023/06/23 07:54:32;;;;;;;10.3;5.4;;;;;;;21.61;80.49;;;;;
2023/06/23 08:05:32;;;;;;;10.3;5.4;;;;;;;21.68;79.63;;;;;
2023/06/23 08:15:32;;;;;;;12.7;6.8;;;;;;;21.77;79.63;;;;;
2023/06/23 08:26:32;;;;;;;12.7;6.8;;;;;;;22.19;78;;;;;
2023/06/23 08:36:32;;;;;;;12.7;6.8;;;;;;;22.11;79.48;;;;;
2023/06/23 08:46:32;;;;;;;15.1;8;;;;;;;22.53;78.46;;;;;
2023/06/23 08:56:32;;;;;;;15.1;8;;;;;;;22.94;77.31;;;;;
2023/06/23 09:07:32;;;;;;;15.1;8;;;;;;;23.76;75.5;;;;;
2023/06/23 09:17:32;;;;;;;17.2;7.8;;;;;;;24.31;73.4;;;;;
2023/06/23 09:27:32;;;;;;;17.2;7.8;;;;;;;24.76;72.02;;;;;
2023/06/23 09:38:34;;;;;;;17.2;7.8;;;;;;;25.28;69.87;;;;;
2023/06/23 09:48:32;;;;;;;16.6;8.3;;;;;;;25.56;70.02;;;;;
2023/06/23 09:59:32;;;;;;;16.6;8.3;;;;;;;25.96;69.25;;;;;
2023/06/23 10:09:32;;;;;;;16.6;8.3;;;;;;;26.51;67.83;;;;;
2023/06/23 10:20:32;;;;;;;12.6;7.3;;;;;;;27.15;66.29;;;;;
2023/06/23 10:30:32;;;;;;;12.6;7.3;;;;;;;27.85;65.36;;;;;
2023/06/23 10:41:32;;;;;;;12.6;7.3;;;;;;;28.22;63.32;;;;;
2023/06/23 10:52:32;;;;;;;12.9;8.3;;;;;;;28.32;63.06;;;;;
2023/06/23 11:03:32;;;;;;;12.9;8.3;;;;;;;28.37;62.48;;;;;
2023/06/23 11:13:32;;;;;;;12.9;8.3;;;;;;;27.87;63.87;;;;;
2023/06/23 11:24:33;;;;;;;18.3;8;;;;;;;27.8;63.77;;;;;
2023/06/23 11:35:32;;;;;;;18.3;8;;;;;;;27.42;65.19;;;;;
2023/06/23 11:45:32;;;;;;;18.2;9.6;;;;;;;27.15;65.17;;;;;
2023/06/23 11:56:32;;;;;;;18.2;9.6;;;;;;;26.86;66.8;;;;;
2023/06/23 12:06:33;;;;;;;18.2;9.6;;;;;;;26.49;68.9;;;;;
2023/06/23 12:17:33;;;;;;;14.3;8.2;;;;;;;26.33;69.09;;;;;
2023/06/23 12:27:32;;;;;;;14.3;8.2;;;;;;;26.24;69.5;;;;;
2023/06/23 12:38:32;;;;;;;14.3;8.2;;;;;;;25.95;70.35;;;;;
2023/06/23 12:48:32;;;;;;;13.5;7.4;;;;;;;25.81;71.38;;;;;
2023/06/23 12:58:32;;;;;;;13.5;7.4;;;;;;;25.95;72.24;;;;;
2023/06/23 13:08:32;;;;;;;13.5;7.4;;;;;;;26.41;70.49;;;;;
2023/06/23 13:18:32;;;;;;;16.8;9.4;;;;;;;26.95;69.06;;;;;
2023/06/23 13:29:32;;;;;;;16.8;9.4;;;;;;;27;68.43;;;;;
2023/06/23 13:39:34;;;;;;;16.8;9.4;;;;;;;27.24;69.2;;;;;
2023/06/23 13:50:32;;;;;;;14.3;9.8;;;;;;;27.35;69.42;;;;;
2023/06/23 14:00:32;;;;;;;14.3;9.8;;;;;;;27.24;69.68;;;;;
2023/06/23 14:11:32;;;;;;;14.3;9.8;;;;;;;27.48;69.98;;;;;
2023/06/23 14:21:32;;;;;;;14.6;10.4;;;;;;;27.47;70.17;;;;;
2023/06/23 14:31:32;;;;;;;14.6;10.4;;;;;;;27.76;68.49;;;;;
2023/06/23 14:41:32;;;;;;;14.6;10.4;;;;;;;27.66;69.92;;;;;
2023/06/23 14:51:32;;;;;;;17.1;11.2;;;;;;;28.04;69.45;;;;;
2023/06/23 15:01:32;;;;;;;17.1;11.2;;;;;;;28.23;67.49;;;;;
2023/06/23 15:11:32;;;;;;;17.1;11.2;;;;;;;28.32;68.19;;;;;
2023/06/23 15:21:32;;;;;;;16;11.9;;;;;;;28.07;68.06;;;;;
2023/06/23 15:32:32;;;;;;;16;11.9;;;;;;;27.73;69.72;;;;;
2023/06/23 15:42:32;;;;;;;16;11.9;;;;;;;27.23;70.89;;;;;
2023/06/23 15:52:32;;;;;;;21.8;12.8;;;;;;;26.64;71.83;;;;;
2023/06/23 16:03:32;;;;;;;21.8;12.8;;;;;;;25.75;75.86;;;;;
2023/06/23 16:13:32;;;;;;;21.8;12.8;;;;;;;25.07;79.52;;;;;
2023/06/23 16:24:32;;;;;;;21.2;14.2;;;;;;;24.56;81.16;;;;;
2023/06/23 16:34:32;;;;;;;21.2;14.2;;;;;;;24.22;82.24;;;;;
2023/06/23 16:45:32;;;;;;;21.2;14.2;;;;;;;24.18;82.58;;;;;
2023/06/23 16:56:32;;;;;;;22.2;15.5;;;;;;;24.16;82.28;;;;;
2023/06/23 17:07:32;;;;;;;22.2;15.5;;;;;;;23.96;82.94;;;;;
2023/06/23 17:17:32;;;;;;;24.6;16.1;;;;;;;23.6;84.84;;;;;
2023/06/23 17:28:32;;;;;;;24.6;16.1;;;;;;;23.44;85.7;;;;;
2023/06/23 17:38:32;;;;;;;24.6;16.1;;;;;;;23.22;86.67;;;;;
2023/06/23 17:49:32;;;;;;;22.5;15.8;;;;;;;22.95;86.73;;;;;
2023/06/23 18:00:32;;;;;;;22.5;15.8;;;;;;;22.41;84.76;;;;;
2023/06/23 18:11:32;;;;;;;22.5;15.8;;;;;;;22.32;86.11;;;;;
2023/06/23 18:21:32;;;;;;;15.5;10.9;;;;;;;22.11;86.14;;;;;
2023/06/23 18:32:43;;;;;;;15.5;10.9;;;;;;;21.9;85.74;;;;;
2023/06/23 18:42:32;;;;;;;15.5;10.9;;;;;;;21.76;86.08;;;;;
2023/06/23 18:52:32;;;;;;;12.6;9.1;;;;;;;21.82;85.75;;;;;
2023/06/23 19:03:32;;;;;;;12.6;9.1;;;;;;;21.72;85.67;;;;;
2023/06/23 19:13:32;;;;;;;12.6;9.1;;;;;;;21.56;86.05;;;;;
2023/06/23 19:24:32;;;;;;;11.1;7.3;;;;;;;21.55;85.78;;;;;
2023/06/23 19:35:33;;;;;;;11.1;7.3;;;;;;;21.43;85.79;;;;;
2023/06/23 19:45:32;;;;;;;11.1;7.3;;;;;;;21.44;85.54;;;;;
2023/06/23 19:55:32;;;;;;;10.3;6.3;;;;;;;21.4;85.68;;;;;
2023/06/23 20:06:32;;;;;;;10.3;6.3;;;;;;;21.25;87.44;;;;;
2023/06/23 20:16:32;;;;;;;11.3;8.4;;;;;;;21.19;87.78;;;;;
2023/06/23 20:26:32;;;;;;;11.3;8.4;;;;;;;21.02;88.64;;;;;
2023/06/23 20:37:32;;;;;;;11.3;8.4;;;;;;;20.82;88.07;;;;;
2023/06/23 20:47:32;;;;;;;9.2;5.6;;;;;;;20.63;87.16;;;;;
2023/06/23 20:58:32;;;;;;;9.2;5.6;;;;;;;20.61;86.02;;;;;
2023/06/23 21:08:32;;;;;;;9.2;5.6;;;;;;;20.55;85.19;;;;;
2023/06/23 21:18:32;;;;;;;7;4.5;;;;;;;20.59;85.17;;;;;
2023/06/23 21:28:34;;;;;;;7;4.5;;;;;;;20.35;85.49;;;;;
2023/06/23 21:38:32;;;;;;;7;4.5;;;;;;;20.34;84.98;;;;;
2023/06/23 21:49:32;;;;;;;9;4.4;;;;;;;20.17;85.44;;;;;
2023/06/23 22:00:32;;;;;;;9;4.4;;;;;;;20.04;85.73;;;;;
2023/06/23 23:13:32;;;;;;;6.4;3.5;;;;;;;19.38;83.98;;;;;
2023/06/23 23:24:33;;;;;;;7.2;4.3;;;;;;;19.18;84.45;;;;;
2023/06/23 23:34:32;;;;;;;7.2;4.3;;;;;;;19.27;83.24;;;;;
2023/06/23 23:45:32;;;;;;;7.2;4.3;;;;;;;19.31;82.35;;;;;
2023/06/23 23:56:32;;;;;;;7.3;3.7;;;;;;;19.06;82.59;;;;;
